Time;durP1;ratioP1;P1;durP2;ratioP2;P2;SDS_P1;SDS_P2;PMS_P1;PMS_P2;Temp;Humidity;BMP_temperature;BMP_pressure;BME280_temperature;BME280_humidity;BME280_pressure;Samples;Min_cycle;Max_cycle;Signal;HPM_P1;HPM_P2
2021/05/06 00:32:37;;;;;;;1.17;0.43;;;;;;;4.94;64.40;99700.28;6244004;23;20095;-73
2021/05/06 00:35:04;;;;;;;0.38;0.28;;;;;;;4.90;64.57;99683.69;6244689;22;20034;-73
2021/05/06 00:37:32;;;;;;;0.20;0.20;;;;;;;4.87;65.09;99684.19;6240113;23;20063;-73
2021/05/06 00:40:03;;;;;;;0.98;0.28;;;;;;;4.82;64.38;99682.22;6245081;22;20453;-73
2021/05/06 00:58:53;;;;;;;0.10;0.10;;;;;;;4.70;64.14;99654.38;6206116;22;20111;-74
2021/05/06 01:06:41;;;;;;;0.22;0.22;;;;;;;4.62;64.57;99644.78;6244364;23;20015;-71
2021/05/06 01:09:10;;;;;;;1.30;0.65;;;;;;;4.62;64.03;99650.19;6240692;23;20019;-71
2021/05/06 01:11:46;;;;;;;0.25;0.25;;;;;;;4.61;64.47;99645.84;6243867;23;20314;-72
2021/05/06 01:14:12;;;;;;;0.63;0.38;;;;;;;4.57;64.49;99636.59;6238459;23;20013;-73
2021/05/06 01:16:37;;;;;;;0.10;0.10;;;;;;;4.53;63.81;99640.84;6241490;22;20046;-72
2021/05/06 01:19:04;;;;;;;0.30;0.20;;;;;;;4.45;63.89;99627.72;6246065;23;19996;-73
2021/05/06 01:21:29;;;;;;;2.72;0.10;;;;;;;4.47;64.05;99631.00;6244073;23;20437;-73
2021/05/06 01:23:56;;;;;;;3.22;0.20;;;;;;;4.36;64.02;99614.56;6193931;23;20012;-73
2021/05/06 01:32:05;;;;;;;1.35;0.22;;;;;;;4.28;65.15;99604.16;6217671;23;20046;-72
2021/05/06 01:34:31;;;;;;;2.15;0.45;;;;;;;4.24;65.24;99602.19;6186009;23;20019;-72
2021/05/06 01:37:06;;;;;;;0.55;0.20;;;;;;;4.15;64.75;99593.66;6198283;23;20015;-73
2021/05/06 01:42:22;;;;;;;0.30;0.30;;;;;;;4.06;64.96;99587.81;6241867;23;20014;-73
2021/05/06 01:45:40;;;;;;;0.35;0.30;;;;;;;4.06;65.19;99593.22;6214570;23;20012;-72
2021/05/06 01:47:51;;;;;;;0.30;0.20;;;;;;;4.00;64.99;99580.66;6222693;23;20012;-72
2021/05/06 01:58:32;;;;;;;0.10;0.10;;;;;;;3.90;65.32;99583.16;6223302;23;20082;-71
2021/05/06 02:01:02;;;;;;;0.10;0.10;;;;;;;3.96;64.72;99587.63;6220998;23;20008;-71
2021/05/06 02:03:27;;;;;;;0.30;0.20;;;;;;;3.94;65.01;99587.88;6252476;23;20086;-71
2021/05/06 02:05:54;;;;;;;0.13;0.13;;;;;;;3.92;64.45;99581.06;6223560;23;20058;-72
2021/05/06 02:08:20;;;;;;;0.00;0.00;;;;;;;3.87;64.36;99578.25;6224497;23;20001;-74
2021/05/06 02:10:46;;;;;;;0.30;0.10;;;;;;;3.85;64.85;99575.78;6250841;23;20039;-74
2021/05/06 02:13:14;;;;;;;1.15;0.00;;;;;;;3.80;65.29;99575.72;6249046;23;20008;-75
2021/05/06 02:15:42;;;;;;;0.25;0.10;;;;;;;3.75;64.52;99570.19;6208200;23;20446;-74
2021/05/06 02:18:07;;;;;;;0.15;0.10;;;;;;;3.74;65.47;99568.53;6199892;23;20012;-75
2021/05/06 02:20:43;;;;;;;0.10;0.10;;;;;;;3.57;65.29;99544.97;6250468;22;20010;-76
2021/05/06 02:23:08;;;;;;;0.10;0.10;;;;;;;3.59;65.24;99559.09;6252504;22;20050;-76
2021/05/06 02:25:36;;;;;;;0.08;0.05;;;;;;;3.50;64.62;99552.41;6246311;22;20012;-75
2021/05/06 02:28:03;;;;;;;0.05;0.03;;;;;;;3.58;65.65;99565.56;6247716;22;20004;-75
2021/05/06 02:30:35;;;;;;;0.00;0.00;;;;;;;3.53;65.09;99557.34;6233244;23;20141;-75
2021/05/06 02:33:12;;;;;;;;;;;;;;;;;;;;;
2021/05/06 02:35:39;;;;;;;0.03;0.00;;;;;;;3.46;65.23;99557.50;6247467;22;20390;-75
2021/05/06 02:38:06;;;;;;;0.52;0.10;;;;;;;3.45;65.34;99560.44;6240941;23;20361;-74
2021/05/06 02:40:33;;;;;;;0.03;0.03;;;;;;;3.35;64.48;99539.44;6245969;22;20066;-75
2021/05/06 02:42:58;;;;;;;0.00;0.00;;;;;;;3.44;65.64;99551.50;6243220;22;20075;-75
2021/05/06 02:45:25;;;;;;;0.00;0.00;;;;;;;3.43;64.86;99549.88;6244510;23;20129;-75
2021/05/06 02:47:58;;;;;;;0.10;0.10;;;;;;;3.43;65.05;99546.31;6245656;23;20059;-75
2021/05/06 02:50:24;;;;;;;0.05;0.00;;;;;;;3.29;65.89;99526.88;6243886;22;20000;-75
2021/05/06 02:53:09;;;;;;;0.10;0.10;;;;;;;3.28;65.15;99527.94;6243944;22;20012;-76
2021/05/06 03:03:45;;;;;;;0.45;0.35;;;;;;;3.10;65.57;99520.81;6245452;23;20168;-74
2021/05/06 03:06:27;;;;;;;0.60;0.57;;;;;;;3.13;64.98;99533.84;6246387;23;20008;-73
2021/05/06 03:08:59;;;;;;;0.20;0.17;;;;;;;3.11;65.80;99527.84;6244724;22;20087;-74
2021/05/06 03:24:53;;;;;;;0.30;0.30;;;;;;;2.84;65.58;99501.38;6244595;23;20103;-75
2021/05/06 03:27:19;;;;;;;0.30;0.20;;;;;;;2.87;66.90;99513.59;6220505;23;20012;-74
2021/05/06 03:30:10;;;;;;;0.50;0.30;;;;;;;2.79;67.26;99502.09;6245588;22;20008;-73
2021/05/06 03:35:38;;;;;;;0.40;0.40;;;;;;;2.70;67.02;99495.44;6254681;22;20021;-74
2021/05/06 04:18:02;;;;;;;0.20;0.20;;;;;;;2.94;67.42;99446.78;6242817;23;20015;-73
2021/05/06 04:26:16;;;;;;;1.08;0.20;;;;;;;3.02;67.54;99432.88;6199145;23;20012;-73
2021/05/06 04:39:07;;;;;;;0.00;0.00;;;;;;;3.29;66.11;99408.78;6225492;23;20004;-74
2021/05/06 04:44:54;;;;;;;0.73;0.10;;;;;;;3.37;66.29;99396.75;6261836;23;20012;-75
2021/05/06 04:55:11;;;;;;;0.30;0.30;;;;;;;3.52;66.73;99401.63;6220807;23;20014;-74
2021/05/06 04:57:59;;;;;;;0.10;0.10;;;;;;;3.58;66.43;99397.13;6244822;23;20012;-73
2021/05/06 05:05:39;;;;;;;0.47;0.47;;;;;;;3.61;67.26;99394.75;6219673;23;20094;-73
2021/05/06 05:08:09;;;;;;;0.38;0.30;;;;;;;3.64;66.33;99391.53;6243929;23;20001;-74
2021/05/06 05:10:44;;;;;;;0.80;0.20;;;;;;;3.67;66.34;99393.75;6242977;23;20090;-73
2021/05/06 05:13:24;;;;;;;0.82;0.55;;;;;;;3.72;67.05;99401.13;6240179;23;20004;-74
2021/05/06 05:23:56;;;;;;;0.43;0.43;;;;;;;3.80;67.43;99394.50;6195731;23;20383;-73
2021/05/06 05:26:22;;;;;;;0.30;0.30;;;;;;;3.86;66.75;99398.91;6174139;23;20027;-74
2021/05/06 05:28:47;;;;;;;0.40;0.28;;;;;;;3.93;67.26;99399.56;6219209;23;20028;-73
2021/05/06 05:31:13;;;;;;;0.38;0.38;;;;;;;4.01;66.40;99401.84;6214248;23;20042;-74
2021/05/06 05:33:47;;;;;;;0.40;0.25;;;;;;;4.11;66.26;99394.97;6215589;23;20077;-74
2021/05/06 05:36:18;;;;;;;0.25;0.20;;;;;;;4.21;66.80;99399.72;6245089;23;20011;-73
2021/05/06 05:42:01;;;;;;;0.20;0.20;;;;;;;4.44;66.09;99391.38;6151728;23;20005;-74
2021/05/06 05:45:10;;;;;;;0.20;0.13;;;;;;;4.59;65.77;99398.84;6207234;23;20082;-73
2021/05/06 05:55:23;;;;;;;0.70;0.30;;;;;;;5.11;65.30;99416.53;6240669;23;20109;-72
2021/05/06 05:57:51;;;;;;;0.30;0.30;;;;;;;5.19;65.36;99409.84;6212038;23;20160;-73
2021/05/06 06:00:17;;;;;;;0.10;0.10;;;;;;;5.29;65.26;99409.13;6214532;23;20020;-72
2021/05/06 06:02:43;;;;;;;0.15;0.15;;;;;;;5.40;65.07;99408.97;6216062;23;20325;-71
2021/05/06 06:05:10;;;;;;;0.10;0.10;;;;;;;5.51;64.89;99406.34;6239879;23;20015;-73
2021/05/06 06:07:35;;;;;;;0.20;0.10;;;;;;;5.62;64.60;99413.47;6242192;23;20012;-72
2021/05/06 06:10:01;;;;;;;0.00;0.00;;;;;;;5.75;64.45;99420.38;6241683;23;20300;-72
2021/05/06 06:12:26;;;;;;;0.10;0.10;;;;;;;5.88;64.34;99413.69;6235306;23;20059;-74
2021/05/06 06:17:23;;;;;;;0.22;0.22;;;;;;;6.09;63.93;99412.00;6212913;23;20019;-74
2021/05/06 06:19:50;;;;;;;1.38;0.55;;;;;;;6.17;63.46;99408.78;6239069;22;20058;-73
2021/05/06 06:22:20;;;;;;;0.43;0.43;;;;;;;6.28;64.04;99409.69;6245324;23;20035;-73
2021/05/06 06:24:50;;;;;;;1.75;0.65;;;;;;;6.42;63.34;99410.00;6241847;22;20054;-75
2021/05/06 06:27:17;;;;;;;0.77;0.20;;;;;;;6.62;63.89;99410.09;6245410;22;20076;-76
2021/05/06 06:29:43;;;;;;;0.20;0.20;;;;;;;6.76;63.67;99407.75;6247491;22;20008;-79
2021/05/06 06:32:14;;;;;;;0.22;0.20;;;;;;;7.00;63.21;99410.00;6248116;23;20015;-78
2021/05/06 06:34:39;;;;;;;0.30;0.10;;;;;;;7.25;62.38;99413.88;6250479;23;20008;-77
2021/05/06 06:37:05;;;;;;;0.20;0.20;;;;;;;7.39;62.73;99401.38;6248119;23;20057;-79
2021/05/06 06:39:31;;;;;;;1.00;0.38;;;;;;;7.64;61.75;99413.38;6221462;23;20000;-76
2021/05/06 06:41:56;;;;;;;0.20;0.20;;;;;;;7.69;61.37;99406.03;6246188;22;20064;-77
2021/05/06 06:44:29;;;;;;;0.38;0.20;;;;;;;7.86;61.17;99413.91;6246312;23;20000;-75
2021/05/06 06:47:02;;;;;;;0.13;0.10;;;;;;;7.88;61.89;99396.50;6246671;23;20028;-75
2021/05/06 06:49:32;;;;;;;0.20;0.20;;;;;;;8.13;61.78;99399.22;6249883;23;20004;-75
2021/05/06 06:51:59;;;;;;;0.10;0.10;;;;;;;8.26;61.19;99397.78;6244485;22;20031;-75
2021/05/06 06:54:27;;;;;;;0.40;0.20;;;;;;;8.46;60.40;99399.69;6253350;23;20004;-76
2021/05/06 06:56:52;;;;;;;0.10;0.10;;;;;;;8.51;60.34;99399.69;6252198;23;20082;-73
2021/05/06 06:59:18;;;;;;;0.20;0.10;;;;;;;8.63;59.89;99406.72;6253353;22;20004;-74
2021/05/06 07:01:46;;;;;;;0.40;0.30;;;;;;;8.64;59.59;99398.25;6249953;22;20011;-76
2021/05/06 07:04:11;;;;;;;0.25;0.25;;;;;;;8.77;59.16;99407.75;6225827;23;20021;-73
2021/05/06 07:06:38;;;;;;;0.80;0.50;;;;;;;8.88;59.78;99406.63;6248927;23;20012;-76
2021/05/06 07:09:05;;;;;;;0.30;0.30;;;;;;;9.14;59.82;99405.69;6219632;23;20118;-75
2021/05/06 07:11:31;;;;;;;0.40;0.30;;;;;;;9.40;59.60;99403.59;6240013;23;20140;-75
2021/05/06 07:13:56;;;;;;;1.85;0.68;;;;;;;9.55;57.56;99405.41;6241546;23;20012;-74
2021/05/06 07:16:23;;;;;;;0.75;0.50;;;;;;;9.54;57.76;99398.34;6244736;22;20024;-75
2021/05/06 07:18:48;;;;;;;0.32;0.32;;;;;;;9.54;57.93;99398.34;6217501;23;20020;-74
2021/05/06 07:21:14;;;;;;;0.30;0.30;;;;;;;9.50;57.42;99386.34;6239567;23;20008;-74
2021/05/06 07:23:39;;;;;;;0.50;0.20;;;;;;;9.58;57.26;99394.75;6241447;23;20004;-76
2021/05/06 07:26:07;;;;;;;0.80;0.47;;;;;;;9.68;56.79;99393.03;6215478;23;20008;-75
2021/05/06 07:28:34;;;;;;;0.40;0.25;;;;;;;9.77;56.68;99391.34;6236921;23;20007;-75
2021/05/06 07:31:02;;;;;;;0.30;0.25;;;;;;;9.99;57.41;99390.03;6217235;23;20004;-76
2021/05/06 07:33:29;;;;;;;0.15;0.15;;;;;;;10.27;56.30;99386.47;6214755;23;20008;-74
2021/05/06 07:35:55;;;;;;;0.20;0.20;;;;;;;10.58;56.52;99388.91;6244069;23;20004;-73
2021/05/06 07:38:20;;;;;;;0.20;0.20;;;;;;;10.95;56.32;99381.91;6215821;23;20062;-75
2021/05/06 07:40:46;;;;;;;0.00;0.00;;;;;;;11.21;55.63;99389.75;6214970;23;20646;-75
2021/05/06 07:43:11;;;;;;;0.20;0.13;;;;;;;11.52;55.29;99390.13;6191486;23;20031;-75
2021/05/06 07:45:37;;;;;;;0.50;0.40;;;;;;;11.67;54.39;99380.84;6242198;23;20012;-75
2021/05/06 07:48:03;;;;;;;0.50;0.47;;;;;;;11.78;53.24;99389.69;6215666;23;20131;-75
2021/05/06 07:50:29;;;;;;;0.60;0.50;;;;;;;11.87;52.60;99389.81;6189013;23;20012;-74
2021/05/06 07:53:03;;;;;;;0.30;0.20;;;;;;;11.98;52.96;99388.56;6240725;23;20047;-74
2021/05/06 07:55:29;;;;;;;0.35;0.30;;;;;;;12.01;51.40;99392.63;6212969;23;20009;-75
2021/05/06 07:57:55;;;;;;;0.25;0.20;;;;;;;12.08;51.98;99381.28;6218496;23;20035;-74
2021/05/06 08:00:21;;;;;;;0.73;0.40;;;;;;;12.26;52.18;99385.88;6192330;23;20456;-73
2021/05/06 08:02:50;;;;;;;0.55;0.20;;;;;;;12.37;51.40;99376.34;6217420;23;20046;-74
2021/05/06 08:05:16;;;;;;;1.55;0.22;;;;;;;12.48;50.76;99381.63;6238999;23;20004;-75
2021/05/06 08:07:42;;;;;;;0.40;0.30;;;;;;;12.52;51.30;99377.16;6218865;23;20070;-74
2021/05/06 08:10:08;;;;;;;1.42;0.30;;;;;;;12.63;50.15;99388.75;6216901;23;20066;-74
2021/05/06 08:12:34;;;;;;;0.85;0.45;;;;;;;12.61;48.96;99380.00;6245083;23;20013;-77
2021/05/06 08:15:02;;;;;;;0.38;0.30;;;;;;;12.63;49.78;99373.13;6209940;22;20008;-73
2021/05/06 08:17:27;;;;;;;1.10;0.30;;;;;;;12.81;49.63;99370.56;6208460;23;20012;-75
2021/05/06 08:19:53;;;;;;;0.10;0.10;;;;;;;13.03;49.64;99381.59;6194030;23;20004;-75
2021/05/06 08:22:18;;;;;;;0.20;0.10;;;;;;;13.23;49.59;99376.78;6216786;23;20050;-74
2021/05/06 08:24:44;;;;;;;1.88;0.20;;;;;;;13.40;48.39;99373.38;6210214;23;20018;-73
2021/05/06 08:27:10;;;;;;;1.17;0.25;;;;;;;13.49;48.42;99374.28;6243902;23;20506;-75
2021/05/06 08:29:36;;;;;;;0.40;0.20;;;;;;;13.60;47.96;99378.41;6244535;23;20000;-75
2021/05/06 08:32:02;;;;;;;0.43;0.20;;;;;;;13.56;47.38;99379.34;6240069;23;20015;-73
2021/05/06 08:34:27;;;;;;;0.40;0.30;;;;;;;13.61;46.88;99374.53;6245223;23;20087;-77
2021/05/06 08:36:53;;;;;;;0.30;0.20;;;;;;;13.71;47.28;99367.16;6191945;23;20419;-76
2021/05/06 08:39:18;;;;;;;0.47;0.20;;;;;;;13.90;46.93;99369.69;6238873;23;20059;-74
2021/05/06 08:41:46;;;;;;;0.47;0.10;;;;;;;14.28;47.57;99372.00;6217360;23;20007;-75
2021/05/06 08:44:15;;;;;;;0.17;0.10;;;;;;;14.65;46.09;99375.44;6187322;23;20012;-74
2021/05/06 08:47:03;;;;;;;0.98;0.40;;;;;;;14.61;43.34;99368.91;6243398;23;20008;-74
2021/05/06 08:49:29;;;;;;;0.40;0.20;;;;;;;14.55;44.24;99368.25;6219633;23;20171;-74
2021/05/06 08:51:55;;;;;;;0.85;0.10;;;;;;;14.69;44.27;99367.34;6216581;23;20015;-73
2021/05/06 08:54:21;;;;;;;0.00;0.00;;;;;;;14.95;44.11;99367.41;6215292;23;20016;-74
2021/05/06 08:56:46;;;;;;;0.30;0.10;;;;;;;15.25;43.76;99357.41;6240962;23;20433;-74
2021/05/06 08:59:12;;;;;;;0.17;0.10;;;;;;;15.42;41.94;99366.78;6244886;23;20049;-75
2021/05/06 09:01:37;;;;;;;3.83;0.20;;;;;;;15.44;39.91;99353.53;6213229;23;20083;-75
2021/05/06 09:04:03;;;;;;;0.10;0.10;;;;;;;15.53;39.18;99352.34;6244214;23;20011;-74
2021/05/06 09:06:28;;;;;;;0.75;0.28;;;;;;;15.61;38.43;99363.69;6214539;23;20014;-75
2021/05/06 09:09:00;;;;;;;0.10;0.00;;;;;;;15.49;37.86;99359.69;6215535;23;20015;-74
2021/05/06 09:11:31;;;;;;;0.65;0.30;;;;;;;15.52;38.73;99360.94;6217641;23;20066;-74
2021/05/06 09:14:08;;;;;;;0.00;0.00;;;;;;;15.74;39.11;99371.00;6244351;23;20873;-75
2021/05/06 09:16:41;;;;;;;0.85;0.10;;;;;;;15.92;38.90;99365.50;6230600;23;20019;-75
2021/05/06 09:19:12;;;;;;;0.10;0.10;;;;;;;16.17;38.15;99358.28;6243335;22;20008;-74
2021/05/06 09:21:41;;;;;;;0.20;0.10;;;;;;;16.37;38.54;99363.06;6245211;22;20000;-77
2021/05/06 09:24:07;;;;;;;0.13;0.10;;;;;;;16.62;37.25;99357.75;6243526;23;20019;-75
2021/05/06 09:26:33;;;;;;;0.20;0.17;;;;;;;16.84;36.96;99358.63;6246186;22;20076;-75
2021/05/06 09:28:58;;;;;;;0.38;0.20;;;;;;;17.17;37.91;99358.75;6244516;22;20008;-76
2021/05/06 09:31:24;;;;;;;0.38;0.10;;;;;;;17.58;36.99;99359.88;6248980;22;20008;-77
2021/05/06 09:33:51;;;;;;;0.20;0.20;;;;;;;17.97;36.73;99359.69;6250999;22;20036;-76
2021/05/06 09:36:18;;;;;;;0.52;0.10;;;;;;;18.59;37.23;99368.09;6243012;23;20094;-75
2021/05/06 09:38:48;;;;;;;0.50;0.13;;;;;;;19.42;37.08;99370.66;6242266;23;20000;-73
2021/05/06 09:41:17;;;;;;;1.42;0.68;;;;;;;20.27;34.94;99370.59;6241413;22;20004;-77
2021/05/06 09:43:43;;;;;;;0.30;0.10;;;;;;;21.02;34.90;99371.66;6216491;23;20011;-75
2021/05/06 09:46:35;;;;;;;1.17;0.10;;;;;;;22.33;34.89;99379.53;6236544;23;20015;-75
2021/05/06 09:49:14;;;;;;;0.00;0.00;;;;;;;23.57;34.47;99383.78;6245374;23;20000;-74
2021/05/06 09:51:59;;;;;;;0.25;0.20;;;;;;;25.18;33.86;99377.31;6248084;22;20014;-75
2021/05/06 09:54:29;;;;;;;0.00;0.00;;;;;;;26.56;32.02;99385.78;6217858;23;20030;-75
2021/05/06 09:57:03;;;;;;;0.10;0.10;;;;;;;27.28;29.17;99387.72;6248694;23;20095;-76
2021/05/06 09:59:34;;;;;;;0.32;0.20;;;;;;;26.79;27.11;99395.81;6245286;22;20331;-74
2021/05/06 10:02:10;;;;;;;0.60;0.50;;;;;;;25.88;25.82;99399.66;6248746;22;20008;-74
2021/05/06 10:04:37;;;;;;;0.40;0.30;;;;;;;24.73;26.67;99394.19;6247464;23;20050;-74
2021/05/06 10:07:21;;;;;;;0.88;0.38;;;;;;;24.05;27.22;99399.94;6242301;23;20023;-75
2021/05/06 10:10:07;;;;;;;0.50;0.20;;;;;;;24.56;29.13;99393.63;6246822;22;20032;-76
2021/05/06 10:12:38;;;;;;;0.50;0.20;;;;;;;25.19;27.46;99393.72;6244043;23;20018;-75
2021/05/06 10:15:09;;;;;;;0.60;0.25;;;;;;;25.49;26.73;99395.47;6245186;22;20054;-75
2021/05/06 10:17:37;;;;;;;1.27;0.30;;;;;;;25.52;25.59;99394.69;6246915;23;20027;-74
2021/05/06 10:20:03;;;;;;;0.60;0.25;;;;;;;25.20;24.62;99400.91;6219163;23;20012;-74
2021/05/06 10:22:29;;;;;;;0.20;0.10;;;;;;;25.20;26.47;99400.91;6215863;23;20012;-75
2021/05/06 10:24:56;;;;;;;0.35;0.20;;;;;;;24.90;24.53;99401.09;6216196;23;20023;-77
2021/05/06 10:27:24;;;;;;;1.80;0.10;;;;;;;24.02;24.76;99411.84;6219786;23;20008;-75
2021/05/06 10:29:57;;;;;;;3.08;0.38;;;;;;;22.90;25.06;99409.50;6243140;23;20079;-76
2021/05/06 10:32:30;;;;;;;0.20;0.20;;;;;;;21.73;26.05;99405.81;6242373;23;20034;-74
2021/05/06 10:34:59;;;;;;;0.30;0.30;;;;;;;20.67;27.41;99397.44;6241579;23;20099;-75
2021/05/06 10:37:28;;;;;;;0.25;0.20;;;;;;;19.71;28.51;99400.81;6243038;23;19996;-75
2021/05/06 10:39:53;;;;;;;0.10;0.10;;;;;;;18.80;29.79;99403.97;6242491;23;20050;-75
2021/05/06 10:42:25;;;;;;;0.38;0.10;;;;;;;18.21;30.61;99403.22;6218064;23;20012;-75
2021/05/06 10:44:51;;;;;;;0.20;0.20;;;;;;;17.55;31.75;99410.31;6214560;23;20008;-76
2021/05/06 10:47:18;;;;;;;0.20;0.10;;;;;;;16.88;33.00;99412.88;6241849;23;20304;-75
2021/05/06 10:49:43;;;;;;;0.20;0.17;;;;;;;16.30;33.44;99406.09;6242945;23;20013;-75
2021/05/06 10:52:10;;;;;;;0.68;0.25;;;;;;;15.80;34.83;99405.56;6241166;23;20004;-75
2021/05/06 10:54:46;;;;;;;0.77;0.22;;;;;;;15.30;35.90;99403.25;6242118;23;20004;-74
2021/05/06 10:57:11;;;;;;;1.38;0.20;;;;;;;14.92;36.48;99410.16;6242732;23;20039;-74
2021/05/06 10:59:41;;;;;;;0.70;0.25;;;;;;;14.65;37.64;99400.19;6217524;23;20328;-74
2021/05/06 11:02:08;;;;;;;0.65;0.40;;;;;;;14.46;37.70;99403.97;6216312;23;20351;-75
2021/05/06 11:04:38;;;;;;;0.65;0.20;;;;;;;14.31;37.93;99401.66;6218019;23;20004;-73
2021/05/06 11:07:22;;;;;;;0.10;0.10;;;;;;;14.20;38.27;99400.28;6241181;23;20408;-76
2021/05/06 11:09:50;;;;;;;0.00;0.00;;;;;;;14.20;38.52;99401.09;6218099;23;20008;-75
2021/05/06 11:12:15;;;;;;;0.13;0.00;;;;;;;14.26;39.13;99410.00;6243493;23;20027;-74
2021/05/06 11:14:59;;;;;;;0.20;0.10;;;;;;;14.30;39.77;99405.50;6243959;23;20000;-75
2021/05/06 11:17:39;;;;;;;0.32;0.20;;;;;;;14.25;39.57;99408.38;6210163;23;20120;-75
2021/05/06 11:20:10;;;;;;;0.40;0.20;;;;;;;14.36;39.26;99407.00;6212916;23;20020;-76
2021/05/06 11:22:42;;;;;;;2.28;0.30;;;;;;;14.67;39.96;99408.94;6185581;23;20019;-74
2021/05/06 11:25:26;;;;;;;0.25;0.20;;;;;;;15.33;39.75;99408.09;6213341;23;20058;-74
2021/05/06 11:28:27;;;;;;;0.40;0.30;;;;;;;16.18;39.36;99407.59;6188584;23;20004;-73
2021/05/06 11:30:53;;;;;;;0.45;0.32;;;;;;;17.12;37.32;99402.34;6222724;23;20036;-76
2021/05/06 11:33:18;;;;;;;1.30;0.10;;;;;;;18.12;37.49;99405.25;6219712;23;20020;-76
2021/05/06 11:36:17;;;;;;;0.10;0.10;;;;;;;19.55;35.74;99419.34;6220337;23;20004;-75
2021/05/06 11:38:50;;;;;;;0.15;0.10;;;;;;;20.19;34.63;99414.03;6219874;23;20012;-76
2021/05/06 11:41:25;;;;;;;0.38;0.20;;;;;;;20.61;32.74;99413.53;6196412;23;20005;-75
2021/05/06 11:43:56;;;;;;;1.03;0.20;;;;;;;20.77;30.90;99415.53;6218329;23;20005;-74
2021/05/06 11:46:24;;;;;;;0.50;0.20;;;;;;;20.60;31.52;99428.56;6217294;23;20004;-74
2021/05/06 11:48:54;;;;;;;0.10;0.00;;;;;;;20.43;31.19;99418.66;6219488;23;20004;-78
2021/05/06 11:51:37;;;;;;;0.40;0.30;;;;;;;20.25;31.25;99420.94;6220706;23;20015;-76
2021/05/06 11:54:04;;;;;;;0.43;0.15;;;;;;;19.92;31.01;99422.03;6193826;23;20028;-76
2021/05/06 11:56:31;;;;;;;1.45;0.10;;;;;;;19.66;31.10;99426.03;6223203;23;20152;-74
2021/05/06 11:59:04;;;;;;;0.47;0.28;;;;;;;19.17;31.12;99424.19;6188594;23;20008;-74
2021/05/06 12:01:29;;;;;;;0.55;0.35;;;;;;;18.59;31.54;99424.28;6186706;23;20395;-75
2021/05/06 12:03:55;;;;;;;2.63;0.68;;;;;;;17.65;32.30;99413.81;6183512;23;20041;-79
2021/05/06 12:06:32;;;;;;;0.40;0.40;;;;;;;16.65;34.07;99422.53;6212450;23;20008;-75
2021/05/06 12:08:59;;;;;;;0.63;0.50;;;;;;;15.83;36.53;99426.16;6190502;23;20101;-76
2021/05/06 12:11:34;;;;;;;2.42;0.73;;;;;;;15.24;38.29;99426.56;6216354;23;20009;-74
2021/05/06 12:14:00;;;;;;;;;;;;;;;14.54;39.39;99434.59;6217035;23;20031;-75
2021/05/06 12:16:27;;;;;;;;;;;;;;;13.72;41.00;99429.22;6227996;23;19919;-75
2021/05/06 12:19:04;;;;;;;0.70;0.55;;;;;;;13.08;43.42;99425.41;6241206;22;19919;-75
2021/05/06 12:21:40;;;;;;;0.80;0.60;;;;;;;12.70;44.63;99422.91;6242056;23;20012;-75
2021/05/06 12:24:08;;;;;;;1.98;0.35;;;;;;;12.47;45.74;99432.09;6239920;23;20042;-75
2021/05/06 12:26:34;;;;;;;0.43;0.43;;;;;;;12.18;46.83;99425.75;6241843;23;20034;-75
2021/05/06 12:29:00;;;;;;;2.28;0.70;;;;;;;11.98;47.41;99428.84;6241668;22;20030;-75
2021/05/06 12:31:26;;;;;;;1.27;0.70;;;;;;;11.83;47.99;99427.16;6238085;23;20039;-74
2021/05/06 12:33:51;;;;;;;1.73;0.98;;;;;;;11.74;48.82;99429.75;6217070;23;20417;-75
2021/05/06 12:36:18;;;;;;;1.92;0.80;;;;;;;11.76;49.45;99418.50;6214907;23;20016;-75
2021/05/06 12:38:44;;;;;;;0.43;0.43;;;;;;;11.87;49.52;99422.69;6240445;23;20004;-74
2021/05/06 12:41:12;;;;;;;0.38;0.38;;;;;;;12.17;48.94;99423.31;6244637;22;20007;-76
2021/05/06 12:43:49;;;;;;;0.50;0.50;;;;;;;12.57;48.08;99415.44;6243217;23;20008;-76
2021/05/06 12:46:21;;;;;;;0.95;0.60;;;;;;;12.94;47.48;99405.41;6244798;22;20004;-76
2021/05/06 12:48:59;;;;;;;1.48;1.05;;;;;;;13.49;47.16;99423.72;6242796;23;20004;-75
2021/05/06 12:51:27;;;;;;;1.13;0.80;;;;;;;14.23;46.54;99418.91;6242491;22;20134;-76
2021/05/06 12:54:00;;;;;;;0.55;0.50;;;;;;;15.54;45.72;99419.31;6244261;22;20381;-75
2021/05/06 12:56:27;;;;;;;0.47;0.47;;;;;;;16.70;43.95;99423.13;6244437;22;20004;-76
2021/05/06 12:58:53;;;;;;;0.40;0.40;;;;;;;18.22;42.88;99420.63;6239080;22;20454;-75
2021/05/06 13:01:29;;;;;;;0.40;0.35;;;;;;;20.89;42.16;99423.75;6239263;22;20004;-75
2021/05/06 13:04:02;;;;;;;0.57;0.20;;;;;;;23.75;38.32;99436.22;6241857;22;20057;-76
2021/05/06 13:06:32;;;;;;;0.10;0.10;;;;;;;26.26;36.55;99442.19;6239661;23;20032;-76
2021/05/06 13:09:01;;;;;;;0.20;0.20;;;;;;;28.21;32.61;99443.56;6242957;22;20079;-76
2021/05/06 13:11:28;;;;;;;0.50;0.30;;;;;;;29.45;28.41;99443.41;6213680;23;20008;-76
2021/05/06 13:13:55;;;;;;;0.10;0.00;;;;;;;29.99;27.33;99449.19;6240728;23;20008;-76
2021/05/06 13:16:48;;;;;;;0.43;0.30;;;;;;;31.80;25.55;99442.22;6239283;22;20020;-76
2021/05/06 13:19:23;;;;;;;0.10;0.10;;;;;;;32.87;23.81;99443.06;6237302;23;20099;-75
2021/05/06 13:21:54;;;;;;;0.25;0.10;;;;;;;34.66;23.95;99447.72;6211170;23;20004;-75
2021/05/06 13:24:20;;;;;;;0.50;0.30;;;;;;;35.43;21.80;99452.47;6242695;23;20077;-77
2021/05/06 13:26:48;;;;;;;0.30;0.20;;;;;;;36.10;20.17;99454.03;6245313;23;20399;-76
2021/05/06 13:29:19;;;;;;;0.50;0.10;;;;;;;37.02;18.71;99447.94;6247559;23;20327;-76
2021/05/06 13:31:49;;;;;;;0.47;0.30;;;;;;;37.76;16.81;99452.09;6215525;23;20502;-76
2021/05/06 13:34:21;;;;;;;0.05;0.05;;;;;;;37.76;16.71;99454.94;6215806;23;20387;-77
2021/05/06 13:37:00;;;;;;;0.10;0.10;;;;;;;36.29;16.02;99448.47;6214932;23;20439;-76
2021/05/06 13:39:27;;;;;;;0.22;0.22;;;;;;;34.23;14.87;99455.53;6243446;23;20038;-76
2021/05/06 13:41:53;;;;;;;0.20;0.20;;;;;;;32.20;15.91;99452.72;6244687;23;19996;-75
2021/05/06 13:44:23;;;;;;;0.30;0.30;;;;;;;30.29;16.40;99439.16;6245029;23;20292;-76
2021/05/06 13:46:54;;;;;;;0.20;0.20;;;;;;;29.62;18.45;99442.41;6242747;23;20008;-75
2021/05/06 13:49:27;;;;;;;0.20;0.20;;;;;;;30.27;18.29;99447.22;6219126;23;20079;-75
2021/05/06 13:51:55;;;;;;;0.28;0.28;;;;;;;30.26;16.59;99451.28;6215714;23;20027;-74
2021/05/06 13:54:21;;;;;;;0.20;0.20;;;;;;;29.43;16.48;99457.91;6215625;23;20019;-76
2021/05/06 13:56:47;;;;;;;0.38;0.15;;;;;;;29.30;17.57;99454.81;6244347;23;20012;-76
2021/05/06 13:59:13;;;;;;;0.35;0.30;;;;;;;29.95;17.94;99448.47;6191236;23;20102;-76
2021/05/06 14:01:39;;;;;;;0.35;0.30;;;;;;;31.43;18.23;99441.31;6243859;23;20007;-76
2021/05/06 14:04:05;;;;;;;0.10;0.10;;;;;;;33.17;17.14;99450.38;6242708;23;20004;-75
2021/05/06 14:06:31;;;;;;;0.20;0.10;;;;;;;34.75;16.38;99449.84;6245328;23;20008;-74
2021/05/06 14:08:57;;;;;;;0.20;0.10;;;;;;;36.03;15.19;99445.78;6211989;23;20382;-75
2021/05/06 14:11:26;;;;;;;0.20;0.20;;;;;;;37.01;14.94;99454.88;6217308;23;20008;-75
2021/05/06 14:13:53;;;;;;;0.00;0.00;;;;;;;37.64;14.47;99450.97;6184379;23;20015;-76
2021/05/06 14:16:19;;;;;;;0.03;0.03;;;;;;;37.43;13.52;99452.72;6209664;23;20031;-75
2021/05/06 14:18:44;;;;;;;0.30;0.25;;;;;;;35.85;12.14;99448.50;6243211;22;20008;-75
2021/05/06 14:21:11;;;;;;;0.50;0.40;;;;;;;33.40;12.38;99445.78;6239340;22;20008;-75
2021/05/06 14:23:44;;;;;;;0.30;0.30;;;;;;;31.13;13.42;99440.25;6242591;23;20012;-73
2021/05/06 14:26:09;;;;;;;0.20;0.20;;;;;;;28.75;14.25;99436.00;6245370;22;20078;-74
2021/05/06 14:28:34;;;;;;;0.20;0.20;;;;;;;27.09;15.54;99434.66;6239263;23;20008;-75
2021/05/06 14:31:00;;;;;;;0.38;0.38;;;;;;;25.76;16.01;99434.41;6244324;22;20384;-75
2021/05/06 14:33:25;;;;;;;1.05;0.40;;;;;;;24.53;16.87;99441.09;6211748;23;20039;-74
2021/05/06 14:35:51;;;;;;;0.40;0.30;;;;;;;23.42;17.63;99438.59;6243128;23;20007;-74
2021/05/06 14:38:16;;;;;;;0.22;0.22;;;;;;;22.78;18.74;99441.16;6243288;23;20099;-75
2021/05/06 14:40:42;;;;;;;0.40;0.40;;;;;;;23.17;20.03;99433.47;6243426;23;20015;-75
2021/05/06 14:43:07;;;;;;;0.40;0.32;;;;;;;25.36;19.56;99447.38;6242850;23;20008;-75
2021/05/06 14:45:36;;;;;;;0.38;0.30;;;;;;;27.67;18.07;99457.81;6237240;23;20015;-75
2021/05/06 14:48:03;;;;;;;0.20;0.20;;;;;;;29.69;17.75;99459.22;6239288;23;20016;-75
2021/05/06 14:50:29;;;;;;;0.43;0.20;;;;;;;30.72;16.25;99461.06;6240952;22;20004;-74
2021/05/06 14:52:55;;;;;;;0.20;0.20;;;;;;;31.50;16.06;99457.34;6242735;22;20053;-75
2021/05/06 14:55:23;;;;;;;0.10;0.10;;;;;;;32.65;15.17;99454.09;6243422;22;20078;-75
2021/05/06 14:57:49;;;;;;;0.17;0.17;;;;;;;33.75;14.54;99460.19;6245295;22;20335;-76